createdAt,value
2023-05-12T00:00:07.846Z,23.21
2023-05-12T00:01:07.817Z,23.21
2023-05-12T00:02:07.793Z,23.20
2023-05-12T00:03:07.887Z,23.20
2023-05-12T00:04:07.855Z,23.19
2023-05-12T00:05:07.784Z,23.19
2023-05-12T00:06:07.772Z,23.20
2023-05-12T00:07:07.778Z,23.20
2023-05-12T00:08:07.770Z,23.20
2023-05-12T00:09:07.745Z,23.19
2023-05-12T00:10:07.748Z,23.19
2023-05-12T00:11:07.713Z,23.19
2023-05-12T00:12:07.723Z,23.20
2023-05-12T00:13:07.739Z,23.19
2023-05-12T00:14:07.727Z,23.19
2023-05-12T00:15:07.717Z,23.18
2023-05-12T00:16:07.713Z,23.18
2023-05-12T00:17:07.692Z,23.18
2023-05-12T00:18:07.838Z,23.18
2023-05-12T00:19:14.831Z,23.18
2023-05-12T00:20:07.764Z,23.17
2023-05-12T00:21:07.744Z,23.18
2023-05-12T00:22:07.722Z,23.18
2023-05-12T00:23:07.739Z,23.18
2023-05-12T00:24:07.747Z,23.17
2023-05-12T00:25:07.786Z,23.17
2023-05-12T00:26:07.771Z,23.17
2023-05-12T00:27:07.677Z,23.17
2023-05-12T00:28:08.235Z,23.17
2023-05-12T00:29:07.673Z,23.17
2023-05-12T00:30:07.683Z,23.17
2023-05-12T00:31:07.728Z,23.17
2023-05-12T00:32:07.700Z,23.17
2023-05-12T00:33:07.648Z,23.16
2023-05-12T00:34:07.654Z,23.16
2023-05-12T00:35:07.665Z,23.17
2023-05-12T00:36:07.743Z,23.16
2023-05-12T00:37:07.686Z,23.16
2023-05-12T00:38:07.599Z,23.15
2023-05-12T00:39:07.610Z,23.15
2023-05-12T00:40:07.597Z,23.15
2023-05-12T00:41:07.683Z,23.15
2023-05-12T00:42:07.621Z,23.15
2023-05-12T00:43:07.628Z,23.15
2023-05-12T00:44:07.580Z,23.15
2023-05-12T00:45:07.573Z,23.15
2023-05-12T00:46:07.744Z,23.15
2023-05-12T00:47:07.580Z,23.14
2023-05-12T00:48:07.704Z,23.14
2023-05-12T00:49:07.527Z,23.14
2023-05-12T00:50:07.555Z,23.14
2023-05-12T00:51:07.519Z,23.14
2023-05-12T00:52:07.574Z,23.14
2023-05-12T00:53:07.629Z,23.14
2023-05-12T00:54:07.571Z,23.14
2023-05-12T00:55:07.622Z,23.14
2023-05-12T00:56:07.760Z,23.14
2023-05-12T00:57:07.672Z,23.13
2023-05-12T00:58:07.670Z,23.13
2023-05-12T00:59:07.772Z,23.14
2023-05-12T01:00:07.736Z,23.14
2023-05-12T01:01:08.269Z,23.13
2023-05-12T01:02:07.855Z,23.13
2023-05-12T01:03:07.925Z,23.12
2023-05-12T01:04:07.907Z,23.13
2023-05-12T01:05:07.937Z,23.13
2023-05-12T01:06:08.035Z,23.12
2023-05-12T01:07:07.986Z,23.12
2023-05-12T01:08:08.001Z,23.12
2023-05-12T01:09:08.090Z,23.12
2023-05-12T01:10:08.114Z,23.11
2023-05-12T01:11:08.132Z,23.12
2023-05-12T01:12:08.138Z,23.12
2023-05-12T01:13:08.201Z,23.12
2023-05-12T01:14:08.203Z,23.12
2023-05-12T01:15:08.297Z,23.11
2023-05-12T01:16:08.326Z,23.11
2023-05-12T01:17:08.361Z,23.11
2023-05-12T01:18:08.431Z,23.11
2023-05-12T01:19:08.473Z,23.11
2023-05-12T01:20:08.467Z,23.11
2023-05-12T01:21:08.715Z,23.11
2023-05-12T01:22:08.505Z,23.10
2023-05-12T01:23:08.526Z,23.11
2023-05-12T01:24:08.604Z,23.10
2023-05-12T01:25:08.638Z,23.11
2023-05-12T01:26:08.636Z,23.11
2023-05-12T01:27:08.689Z,23.11
2023-05-12T01:28:08.713Z,23.10
2023-05-12T01:29:08.749Z,23.11
2023-05-12T01:30:08.817Z,23.10
2023-05-12T01:31:08.903Z,23.10
2023-05-12T01:32:08.862Z,23.11
2023-05-12T01:33:08.932Z,23.10
2023-05-12T01:34:08.943Z,23.10
2023-05-12T01:35:08.938Z,23.10
2023-05-12T01:36:09.271Z,23.10
2023-05-12T01:37:09.042Z,23.09
2023-05-12T01:38:09.104Z,23.09
2023-05-12T01:39:09.091Z,23.09
2023-05-12T01:40:09.181Z,23.08
2023-05-12T01:41:09.202Z,23.09
2023-05-12T01:42:09.218Z,23.09
2023-05-12T01:43:09.229Z,23.09
2023-05-12T01:44:09.266Z,23.09
2023-05-12T01:45:09.346Z,23.09
2023-05-12T01:46:09.768Z,23.08
2023-05-12T01:47:09.431Z,23.08
2023-05-12T01:48:09.415Z,23.08
2023-05-12T01:49:09.466Z,23.08
2023-05-12T01:50:09.500Z,23.08
2023-05-12T01:51:09.498Z,23.08
2023-05-12T01:52:09.600Z,23.08
2023-05-12T01:53:09.596Z,23.08
2023-05-12T01:54:09.653Z,23.07
2023-05-12T01:55:09.660Z,23.07
2023-05-12T01:56:09.760Z,23.07
2023-05-12T01:57:09.705Z,23.07
2023-05-12T01:58:09.757Z,23.08
2023-05-12T01:59:09.995Z,23.07
2023-05-12T02:00:09.843Z,23.07
2023-05-12T02:01:09.889Z,23.07
2023-05-12T02:02:10.008Z,23.07
2023-05-12T02:03:10.051Z,23.07
2023-05-12T02:04:10.066Z,23.07
2023-05-12T02:05:10.009Z,23.06
2023-05-12T02:06:10.060Z,23.06
2023-05-12T02:07:10.065Z,23.06
2023-05-12T02:08:10.228Z,23.06
2023-05-12T02:09:10.131Z,23.06
2023-05-12T02:10:10.198Z,23.06
2023-05-12T02:11:10.268Z,23.06
2023-05-12T02:12:10.236Z,23.05
2023-05-12T02:13:10.268Z,23.06
2023-05-12T02:14:10.381Z,23.06
2023-05-12T02:15:10.397Z,23.05
2023-05-12T02:16:11.284Z,23.05
2023-05-12T02:17:10.498Z,23.05
2023-05-12T02:18:10.525Z,23.05
2023-05-12T02:19:10.614Z,23.05
2023-05-12T02:20:10.715Z,23.04
2023-05-12T02:21:10.610Z,23.04
2023-05-12T02:22:10.635Z,23.06
2023-05-12T02:23:10.617Z,23.04
2023-05-12T02:24:11.261Z,23.05
2023-05-12T02:25:10.731Z,23.05
2023-05-12T02:26:11.248Z,23.04
2023-05-12T02:27:10.774Z,23.04
2023-05-12T02:28:10.860Z,23.04
2023-05-12T02:29:10.905Z,23.04
2023-05-12T02:30:11.759Z,23.04
2023-05-12T02:31:11.006Z,23.04
2023-05-12T02:32:11.075Z,23.03
2023-05-12T02:33:11.099Z,23.04
2023-05-12T02:34:11.079Z,23.04
2023-05-12T02:35:11.108Z,23.04
2023-05-12T02:36:11.166Z,23.04
2023-05-12T02:37:11.241Z,23.04
2023-05-12T02:38:11.229Z,23.03
2023-05-12T02:39:11.301Z,23.03
2023-05-12T02:40:11.314Z,23.03
2023-05-12T02:41:11.378Z,23.02
2023-05-12T02:42:11.401Z,23.02
2023-05-12T02:43:11.478Z,23.03
2023-05-12T02:44:11.484Z,23.03
2023-05-12T02:45:11.510Z,23.02
2023-05-12T02:46:11.682Z,23.02
2023-05-12T02:47:11.686Z,23.02
2023-05-12T02:48:11.731Z,23.02
2023-05-12T02:49:11.758Z,23.03
2023-05-12T02:50:11.760Z,23.02
2023-05-12T02:51:11.796Z,23.02
2023-05-12T02:52:12.290Z,23.02
2023-05-12T02:53:11.922Z,23.02
2023-05-12T02:54:12.026Z,23.02
2023-05-12T02:55:12.005Z,23.02
2023-05-12T02:56:12.097Z,23.01
2023-05-12T02:57:12.123Z,23.02
2023-05-12T02:58:12.173Z,23.01
2023-05-12T02:59:12.276Z,23.01
2023-05-12T03:00:12.276Z,23.01
2023-05-12T03:01:12.422Z,23.01
2023-05-12T03:02:12.886Z,23.01
2023-05-12T03:03:12.588Z,23.01
2023-05-12T03:04:12.449Z,23.01
2023-05-12T03:05:12.546Z,23.01
2023-05-12T03:06:12.621Z,23.00
2023-05-12T03:07:12.792Z,23.01
2023-05-12T03:08:12.637Z,23.00
2023-05-12T03:09:12.681Z,23.00
2023-05-12T03:10:12.713Z,23.01
2023-05-12T03:11:12.817Z,23.00
2023-05-12T03:12:12.847Z,23.00
2023-05-12T03:13:12.883Z,23.00
2023-05-12T03:14:12.988Z,23.00
2023-05-12T03:15:13.034Z,23.00
2023-05-12T03:16:13.042Z,23.00
2023-05-12T03:17:13.118Z,23.00
2023-05-12T03:18:13.233Z,22.99
2023-05-12T03:19:13.196Z,23.00
2023-05-12T03:20:13.289Z,23.00
2023-05-12T03:21:13.265Z,23.00
2023-05-12T03:22:13.869Z,23.00
2023-05-12T03:23:13.432Z,23.00
2023-05-12T03:24:13.481Z,22.99
2023-05-12T03:25:13.582Z,22.99
2023-05-12T03:26:13.539Z,22.99
2023-05-12T03:27:13.584Z,22.99
2023-05-12T03:28:13.677Z,22.99
2023-05-12T03:29:13.726Z,22.99
2023-05-12T03:30:13.742Z,22.99
2023-05-12T03:31:13.844Z,22.99
2023-05-12T03:32:13.861Z,22.99
2023-05-12T03:33:13.896Z,22.98
2023-05-12T03:34:13.908Z,22.99
2023-05-12T03:35:14.029Z,22.98
2023-05-12T03:36:14.002Z,22.98
2023-05-12T03:37:14.791Z,22.98
2023-05-12T03:38:14.161Z,22.97
2023-05-12T03:39:14.177Z,22.97
2023-05-12T03:40:14.284Z,22.98
2023-05-12T03:41:14.322Z,22.98
2023-05-12T03:42:14.360Z,22.97
2023-05-12T03:43:14.397Z,22.97
2023-05-12T03:44:14.413Z,22.98
2023-05-12T03:45:14.508Z,22.97
2023-05-12T03:46:14.629Z,22.97
2023-05-12T03:47:14.646Z,22.96
2023-05-12T03:48:14.652Z,22.96
2023-05-12T03:49:14.639Z,22.96
2023-05-12T03:50:14.703Z,22.96
2023-05-12T03:51:14.771Z,22.96
2023-05-12T03:52:15.281Z,22.96
2023-05-12T03:53:15.333Z,22.96
2023-05-12T03:54:14.883Z,22.95
2023-05-12T03:55:14.931Z,22.96
2023-05-12T03:56:15.003Z,22.97
2023-05-12T03:57:15.103Z,22.96
2023-05-12T03:58:15.032Z,22.96
2023-05-12T03:59:15.153Z,22.95
2023-05-12T04:00:15.177Z,22.95
2023-05-12T04:01:15.273Z,22.95
2023-05-12T04:02:15.266Z,22.95
2023-05-12T04:03:15.429Z,22.94
2023-05-12T04:04:15.436Z,22.94
2023-05-12T04:05:15.518Z,22.95
2023-05-12T04:06:15.495Z,22.95
2023-05-12T04:07:15.766Z,22.95
2023-05-12T04:08:15.586Z,22.94
2023-05-12T04:09:15.596Z,22.94
2023-05-12T04:10:15.684Z,22.94
2023-05-12T04:11:15.681Z,22.95
2023-05-12T04:12:15.716Z,22.94
2023-05-12T04:13:15.829Z,22.94
2023-05-12T04:14:15.802Z,22.95
2023-05-12T04:15:15.922Z,22.94
2023-05-12T04:16:15.999Z,22.94
2023-05-12T04:17:16.000Z,22.95
2023-05-12T04:18:16.049Z,22.93
2023-05-12T04:19:16.070Z,22.94
2023-05-12T04:20:16.183Z,22.94
2023-05-12T04:21:16.193Z,22.94
2023-05-12T04:22:16.828Z,22.94
2023-05-12T04:23:16.350Z,22.93
2023-05-12T04:24:16.386Z,22.94
2023-05-12T04:25:16.466Z,22.93
2023-05-12T04:26:16.473Z,22.93
2023-05-12T04:27:16.536Z,22.93
2023-05-12T04:28:16.594Z,22.93
2023-05-12T04:29:16.613Z,22.93
2023-05-12T04:30:16.700Z,22.93
2023-05-12T04:31:16.777Z,22.93
2023-05-12T04:32:16.967Z,22.92
2023-05-12T04:33:16.869Z,22.92
2023-05-12T04:34:16.940Z,22.92
2023-05-12T04:35:17.013Z,22.92
2023-05-12T04:36:17.082Z,22.93
2023-05-12T04:37:17.119Z,22.92
2023-05-12T04:38:17.137Z,22.92
2023-05-12T04:39:17.216Z,22.92
2023-05-12T04:40:17.360Z,22.93
2023-05-12T04:41:17.280Z,22.92
2023-05-12T04:42:17.357Z,22.92
2023-05-12T04:44:17.381Z,22.92
2023-05-12T04:45:17.467Z,22.92
2023-05-12T04:46:17.415Z,22.92
2023-05-12T04:47:17.398Z,22.92
2023-05-12T04:48:17.446Z,22.91
2023-05-12T04:49:17.340Z,22.92
2023-05-12T04:50:17.415Z,22.91
2023-05-12T04:51:17.364Z,22.91
2023-05-12T04:52:17.380Z,22.90
2023-05-12T04:53:17.365Z,22.91
2023-05-12T04:54:17.320Z,22.91
2023-05-12T04:55:17.396Z,22.90
2023-05-12T04:56:17.362Z,22.90
2023-05-12T04:57:17.338Z,22.91
2023-05-12T04:58:17.317Z,22.90
2023-05-12T04:59:17.328Z,22.91
2023-05-12T05:00:17.282Z,22.91
2023-05-12T05:01:17.384Z,22.91
2023-05-12T05:02:17.330Z,22.90
2023-05-12T05:03:17.498Z,22.90
2023-05-12T05:04:17.332Z,22.91
2023-05-12T05:05:17.306Z,22.91
2023-05-12T05:06:17.268Z,22.90
2023-05-12T05:07:17.384Z,22.90
2023-05-12T05:08:17.254Z,22.90
2023-05-12T05:09:17.275Z,22.90
2023-05-12T05:10:17.250Z,22.90
2023-05-12T05:11:17.247Z,22.90
2023-05-12T05:12:17.370Z,22.90
2023-05-12T05:13:17.282Z,22.90
2023-05-12T05:14:17.221Z,22.89
2023-05-12T05:15:17.496Z,22.90
2023-05-12T05:16:17.212Z,22.90
2023-05-12T05:17:17.357Z,22.89
2023-05-12T05:18:17.188Z,22.89
2023-05-12T05:19:24.777Z,22.89
2023-05-12T05:20:19.683Z,22.89
2023-05-12T05:21:17.173Z,22.90
2023-05-12T05:22:17.175Z,22.89
2023-05-12T05:23:17.141Z,22.89
2023-05-12T05:24:17.187Z,22.89
2023-05-12T05:25:17.289Z,22.89
2023-05-12T05:26:17.144Z,22.89
2023-05-12T05:27:17.184Z,22.89
2023-05-12T05:28:17.078Z,22.90
2023-05-12T05:29:17.085Z,22.89
2023-05-12T05:30:17.865Z,22.89
2023-05-12T05:31:17.143Z,22.89
2023-05-12T05:32:17.054Z,22.88
2023-05-12T05:33:17.864Z,22.89
2023-05-12T05:34:17.138Z,22.89
2023-05-12T05:35:17.114Z,22.90
2023-05-12T05:36:17.077Z,22.89
2023-05-12T05:37:17.329Z,22.89
2023-05-12T05:38:17.045Z,22.90
2023-05-12T05:39:17.027Z,22.90
2023-05-12T05:40:17.039Z,22.90
2023-05-12T05:41:17.044Z,22.90
2023-05-12T05:42:17.101Z,22.91
2023-05-12T05:43:17.046Z,22.91
2023-05-12T05:44:17.007Z,22.92
2023-05-12T05:45:17.027Z,22.90
2023-05-12T05:46:17.056Z,22.92
2023-05-12T05:47:16.979Z,22.90
2023-05-12T05:48:16.983Z,22.90
2023-05-12T05:49:16.953Z,22.92
2023-05-12T05:50:16.969Z,22.91
2023-05-12T05:51:16.993Z,22.95
2023-05-12T05:52:17.384Z,22.98
2023-05-12T05:53:17.115Z,23.01
2023-05-12T05:54:16.973Z,23.06
2023-05-12T05:55:17.061Z,23.13
2023-05-12T05:56:17.257Z,23.21
2023-05-12T05:57:16.993Z,23.26
2023-05-12T05:58:16.989Z,23.33
2023-05-12T05:59:16.920Z,23.42
2023-05-12T06:00:17.855Z,23.50
2023-05-12T06:01:19.936Z,23.57
2023-05-12T06:02:16.934Z,23.65
2023-05-12T06:03:17.058Z,23.72
2023-05-12T06:04:16.939Z,23.76
2023-05-12T06:05:17.184Z,23.80
2023-05-12T06:06:16.843Z,23.83
2023-05-12T06:07:17.105Z,23.86
2023-05-12T06:08:16.851Z,23.89
2023-05-12T06:09:16.892Z,23.91
2023-05-12T06:10:16.858Z,23.91
2023-05-12T06:11:17.854Z,23.93
2023-05-12T06:12:19.333Z,23.93
2023-05-12T06:13:17.001Z,23.92
2023-05-12T06:14:16.997Z,23.93
2023-05-12T06:15:17.075Z,23.92
2023-05-12T06:17:36.352Z,23.86
2023-05-12T06:18:36.350Z,23.85
2023-05-12T06:19:36.305Z,23.85
2023-05-12T06:20:36.288Z,23.85
2023-05-12T06:21:36.258Z,23.85
2023-05-12T06:22:36.514Z,23.85
2023-05-12T06:23:36.281Z,23.85
2023-05-12T06:24:36.274Z,23.85
2023-05-12T06:25:36.245Z,23.86
2023-05-12T06:26:36.248Z,23.87
2023-05-12T06:27:36.240Z,23.87
2023-05-12T06:28:36.224Z,23.87
2023-05-12T06:29:36.247Z,23.88
2023-05-12T06:30:36.207Z,23.89
2023-05-12T06:31:36.217Z,23.89
2023-05-12T06:32:36.196Z,23.91
2023-05-12T06:33:36.216Z,23.92
2023-05-12T06:34:36.202Z,23.92
2023-05-12T06:35:36.170Z,23.94
2023-05-12T06:36:36.185Z,23.95
2023-05-12T06:37:36.514Z,23.95
2023-05-12T06:38:36.186Z,23.96
2023-05-12T06:39:36.997Z,23.96
2023-05-12T06:40:36.141Z,23.98
2023-05-12T06:41:44.693Z,23.99
2023-05-12T06:42:36.305Z,23.99
2023-05-12T06:43:36.306Z,23.99
2023-05-12T06:44:36.362Z,24.00
2023-05-12T06:45:36.431Z,24.01
2023-05-12T06:46:36.518Z,24.02
2023-05-12T06:47:36.562Z,24.04
2023-05-12T06:48:36.555Z,24.04
2023-05-12T06:49:36.566Z,24.04
2023-05-12T06:50:36.618Z,24.06
2023-05-12T06:51:36.658Z,24.07
2023-05-12T06:52:36.651Z,24.07
2023-05-12T06:53:36.697Z,24.05
2023-05-12T06:54:36.738Z,24.00
2023-05-12T06:55:36.768Z,23.95
2023-05-12T06:56:36.843Z,23.92
2023-05-12T06:57:37.034Z,23.89
2023-05-12T06:58:36.962Z,23.87
2023-05-12T06:59:36.991Z,23.84
2023-05-12T07:00:37.045Z,23.82
2023-05-12T07:01:37.075Z,23.79
2023-05-12T07:02:37.113Z,23.77
2023-05-12T07:03:37.050Z,23.76
2023-05-12T07:04:37.045Z,23.75
2023-05-12T07:05:37.123Z,23.74
2023-05-12T07:06:37.032Z,23.73
2023-05-12T07:07:44.574Z,23.72
2023-05-12T07:08:37.068Z,23.68
2023-05-12T07:09:37.054Z,23.68
2023-05-12T07:10:37.066Z,23.68
2023-05-12T07:11:37.062Z,23.66
2023-05-12T07:12:37.057Z,23.64
2023-05-12T07:13:37.024Z,23.64
2023-05-12T07:14:37.026Z,23.59
2023-05-12T07:15:37.042Z,23.52
2023-05-12T07:16:37.053Z,23.48
2023-05-12T07:17:37.064Z,23.40
2023-05-12T07:18:37.112Z,23.32
2023-05-12T07:19:36.977Z,23.25
2023-05-12T07:20:36.974Z,23.21
2023-05-12T07:21:36.992Z,23.13
2023-05-12T07:22:38.649Z,23.11
2023-05-12T07:23:37.097Z,23.09
2023-05-12T07:24:43.967Z,23.08
2023-05-12T07:25:36.944Z,23.02
2023-05-12T07:26:36.969Z,23.00
2023-05-12T07:27:36.922Z,22.98
2023-05-12T07:28:37.143Z,22.91
2023-05-12T07:29:36.903Z,22.89
2023-05-12T07:30:36.893Z,22.87
2023-05-12T07:31:36.967Z,22.74
2023-05-12T07:32:36.926Z,22.66
2023-05-12T07:33:37.128Z,22.63
2023-05-12T07:34:43.876Z,22.63
2023-05-12T07:35:36.873Z,22.63
2023-05-12T07:36:36.855Z,22.65
2023-05-12T07:37:36.902Z,22.66
2023-05-12T07:38:36.892Z,22.68
2023-05-12T07:39:36.830Z,22.69
2023-05-12T07:40:36.825Z,22.72
2023-05-12T07:41:36.874Z,22.74
2023-05-12T07:42:36.846Z,22.72
2023-05-12T07:43:36.831Z,22.73
2023-05-12T07:44:36.855Z,22.73
2023-05-12T07:45:36.791Z,22.77
2023-05-12T07:46:36.821Z,22.78
2023-05-12T07:47:36.810Z,22.76
2023-05-12T07:48:36.823Z,22.72
2023-05-12T07:49:36.775Z,22.73
2023-05-12T07:50:36.785Z,22.73
2023-05-12T07:51:36.750Z,22.76
2023-05-12T07:52:36.765Z,22.79
2023-05-12T07:53:37.105Z,22.81
2023-05-12T07:54:36.721Z,22.87
2023-05-12T07:55:36.739Z,22.90
2023-05-12T07:56:36.721Z,22.94
2023-05-12T07:57:36.742Z,22.96
2023-05-12T07:58:36.731Z,22.95
2023-05-12T07:59:36.715Z,22.96
2023-05-12T08:00:43.740Z,22.95
2023-05-12T08:01:36.693Z,22.86
2023-05-12T08:02:36.843Z,22.86
2023-05-12T08:03:36.756Z,22.88
2023-05-12T08:04:36.698Z,22.88
2023-05-12T08:05:36.655Z,22.87
2023-05-12T08:06:36.643Z,22.84
2023-05-12T08:07:36.637Z,22.82
2023-05-12T08:08:36.650Z,22.81
2023-05-12T08:09:36.661Z,22.76
2023-05-12T08:10:36.612Z,22.63
2023-05-12T08:11:36.586Z,22.60
2023-05-12T08:12:36.626Z,22.55
2023-05-12T08:13:36.670Z,22.55
2023-05-12T08:14:36.587Z,22.56
2023-05-12T08:15:36.589Z,22.59
2023-05-12T08:16:36.581Z,22.62
2023-05-12T08:17:36.635Z,22.63
2023-05-12T08:18:36.654Z,22.63
2023-05-12T08:19:36.570Z,22.62
2023-05-12T08:20:43.570Z,22.63
2023-05-12T08:21:36.531Z,22.63
2023-05-12T08:22:36.533Z,22.64
2023-05-12T08:23:36.659Z,22.61
2023-05-12T08:24:36.516Z,22.61
2023-05-12T08:25:36.688Z,22.62
2023-05-12T08:26:36.516Z,22.63
2023-05-12T08:27:36.496Z,22.65
2023-05-12T08:28:37.145Z,22.58
2023-05-12T08:29:36.486Z,22.52
2023-05-12T08:30:36.535Z,22.35
2023-05-12T08:31:36.564Z,22.15
2023-05-12T08:32:36.479Z,21.98
2023-05-12T08:33:36.491Z,21.97
2023-05-12T08:34:36.478Z,22.01
2023-05-12T08:35:36.476Z,22.05
2023-05-12T08:36:36.477Z,22.08
2023-05-12T08:37:36.406Z,22.09
2023-05-12T08:38:36.686Z,22.01
2023-05-12T08:39:36.436Z,22.01
2023-05-12T08:40:36.408Z,22.01
2023-05-12T08:41:36.411Z,22.02
2023-05-12T08:42:36.432Z,22.05
2023-05-12T08:43:36.433Z,22.07
2023-05-12T08:44:36.363Z,22.10
2023-05-12T08:45:36.388Z,22.13
2023-05-12T08:46:36.471Z,22.20
2023-05-12T08:47:36.378Z,22.25
2023-05-12T08:48:36.332Z,22.29
2023-05-12T08:49:36.345Z,22.37
2023-05-12T08:50:36.330Z,22.43
2023-05-12T08:51:36.348Z,22.50
2023-05-12T08:52:36.356Z,22.56
2023-05-12T08:53:36.330Z,22.62
2023-05-12T08:54:48.602Z,22.67
2023-05-12T08:55:37.284Z,22.72
2023-05-12T08:57:38.114Z,22.81
2023-05-12T08:58:41.614Z,22.84
2023-05-12T08:59:37.254Z,22.86
2023-05-12T09:00:36.368Z,22.88
2023-05-12T09:01:36.943Z,22.90
2023-05-12T09:02:51.210Z,22.89
2023-05-12T09:03:37.380Z,22.82
2023-05-12T09:04:36.333Z,22.83
2023-05-12T09:05:36.298Z,22.85
2023-05-12T09:06:36.289Z,22.87
2023-05-12T09:07:36.290Z,22.87
2023-05-12T09:08:36.832Z,22.87
2023-05-12T09:09:43.415Z,22.86
2023-05-12T09:10:36.278Z,22.87
2023-05-12T09:11:36.233Z,22.87
2023-05-12T09:12:36.260Z,22.88
2023-05-12T09:13:36.230Z,22.88
2023-05-12T09:14:36.247Z,22.88
2023-05-12T09:15:43.204Z,22.90
2023-05-12T09:16:36.261Z,22.90
2023-05-12T09:17:36.212Z,22.90
2023-05-12T09:18:36.239Z,22.90
2023-05-12T09:19:36.196Z,22.90
2023-05-12T09:20:36.228Z,22.90
2023-05-12T09:21:36.184Z,22.92
2023-05-12T09:22:36.208Z,22.92
2023-05-12T09:23:36.246Z,22.92
2023-05-12T09:24:36.198Z,22.91
2023-05-12T09:25:36.149Z,22.91
2023-05-12T09:26:36.151Z,22.90
2023-05-12T09:27:36.126Z,22.90
2023-05-12T09:28:36.127Z,22.90
2023-05-12T09:29:42.496Z,22.88
2023-05-12T09:30:37.125Z,22.80
2023-05-12T09:31:36.183Z,22.78
2023-05-12T09:32:36.172Z,22.78
2023-05-12T09:33:36.228Z,22.79
2023-05-12T09:34:36.109Z,22.79
2023-05-12T09:35:36.070Z,22.81
2023-05-12T09:36:36.098Z,22.81
2023-05-12T09:37:36.129Z,22.83
2023-05-12T09:38:36.054Z,22.76
2023-05-12T09:39:36.080Z,22.69
2023-05-12T09:40:36.054Z,22.49
2023-05-12T09:41:36.070Z,22.49
2023-05-12T09:42:36.023Z,22.49
2023-05-12T09:43:36.032Z,22.48
2023-05-12T09:44:36.010Z,22.49
2023-05-12T09:45:36.217Z,22.49
2023-05-12T09:46:36.171Z,22.48
2023-05-12T09:47:36.156Z,22.48
2023-05-12T09:48:36.237Z,22.48
2023-05-12T09:49:36.185Z,22.48
2023-05-12T09:50:46.589Z,22.52
2023-05-12T09:51:37.168Z,22.55
2023-05-12T09:52:36.153Z,22.58
2023-05-12T09:53:36.136Z,22.62
2023-05-12T09:54:36.142Z,22.65
2023-05-12T09:55:36.118Z,22.69
2023-05-12T09:56:36.174Z,22.72
2023-05-12T09:57:36.132Z,22.77
2023-05-12T09:58:36.107Z,22.80
2023-05-12T09:59:36.176Z,22.85
2023-05-12T10:00:55.051Z,22.90
2023-05-12T10:01:37.144Z,22.94
2023-05-12T10:02:36.142Z,22.99
2023-05-12T10:03:36.264Z,23.02
2023-05-12T10:04:36.101Z,23.03
2023-05-12T10:05:36.096Z,23.04
2023-05-12T10:06:36.057Z,23.05
2023-05-12T10:07:36.070Z,23.07
2023-05-12T10:08:36.272Z,23.10
2023-05-12T10:09:36.061Z,23.12
2023-05-12T10:10:36.029Z,23.14
2023-05-12T10:11:36.024Z,23.16
2023-05-12T10:12:36.065Z,23.17
2023-05-12T10:13:36.076Z,23.19
2023-05-12T10:14:36.146Z,23.21
2023-05-12T10:15:36.121Z,23.23
2023-05-12T10:16:36.236Z,23.23
2023-05-12T10:17:36.269Z,23.24
2023-05-12T10:18:36.356Z,23.24
2023-05-12T10:19:36.269Z,23.29
2023-05-12T10:20:36.179Z,23.32
2023-05-12T10:21:36.168Z,23.34
2023-05-12T10:22:36.172Z,23.36
2023-05-12T10:23:37.819Z,23.39
2023-05-12T10:24:36.233Z,23.40
2023-05-12T10:25:36.150Z,23.41
2023-05-12T10:26:36.236Z,23.45
2023-05-12T10:27:36.201Z,23.47
2023-05-12T10:28:36.748Z,23.48
2023-05-12T10:29:36.110Z,23.51
2023-05-12T10:30:36.131Z,23.51
2023-05-12T10:31:36.224Z,23.53
2023-05-12T10:32:36.148Z,23.55
2023-05-12T10:33:36.119Z,23.56
2023-05-12T10:34:36.263Z,23.58
2023-05-12T10:35:36.085Z,23.59
2023-05-12T10:36:36.090Z,23.62
2023-05-12T10:37:36.061Z,23.63
2023-05-12T10:38:36.108Z,23.62
2023-05-12T10:39:36.036Z,23.63
2023-05-12T10:40:36.076Z,23.66
2023-05-12T10:41:36.047Z,23.65
2023-05-12T10:42:36.038Z,23.68
2023-05-12T10:43:36.200Z,23.68
2023-05-12T10:44:36.031Z,23.67
2023-05-12T10:45:36.064Z,23.66
2023-05-12T10:46:36.056Z,23.65
2023-05-12T10:47:36.043Z,23.68
2023-05-12T10:48:35.977Z,23.69
2023-05-12T10:49:36.218Z,23.70
2023-05-12T10:50:35.960Z,23.70
2023-05-12T10:51:35.968Z,23.71
2023-05-12T10:52:35.997Z,23.73
2023-05-12T10:53:48.251Z,23.74
2023-05-12T10:54:36.993Z,23.74
2023-05-12T10:55:36.029Z,23.75
2023-05-12T10:56:36.123Z,23.76
2023-05-12T10:57:36.080Z,23.77
2023-05-12T10:58:36.489Z,23.78
2023-05-12T10:59:36.288Z,23.79
2023-05-12T11:00:36.412Z,23.82
2023-05-12T11:01:36.522Z,23.83
2023-05-12T11:02:38.138Z,23.86
2023-05-12T11:03:36.889Z,23.87
2023-05-12T11:04:44.613Z,23.89
2023-05-12T11:05:37.801Z,23.88
2023-05-12T11:06:36.440Z,23.90
2023-05-12T11:07:37.001Z,23.93
2023-05-12T11:08:36.199Z,23.94
2023-05-12T11:09:36.730Z,23.96
2023-05-12T11:10:35.951Z,23.97
2023-05-12T11:11:36.300Z,23.99
2023-05-12T11:12:36.116Z,24.01
2023-05-12T11:13:35.899Z,24.03
2023-05-12T11:14:36.299Z,24.04
2023-05-12T11:15:35.846Z,24.06
2023-05-12T11:16:35.930Z,24.07
2023-05-12T11:17:35.876Z,24.10
2023-05-12T11:18:35.936Z,24.11
2023-05-12T11:19:35.855Z,24.12
2023-05-12T11:20:35.858Z,24.13
2023-05-12T11:21:35.816Z,24.15
2023-05-12T11:22:35.837Z,24.17
2023-05-12T11:23:35.799Z,24.19
2023-05-12T11:24:35.814Z,24.20
2023-05-12T11:25:35.807Z,24.22
2023-05-12T11:26:35.833Z,24.22
2023-05-12T11:27:35.776Z,24.24
2023-05-12T11:28:35.792Z,24.26
2023-05-12T11:29:35.792Z,24.27
2023-05-12T11:30:35.828Z,24.29
2023-05-12T11:31:35.789Z,24.30
2023-05-12T11:32:35.796Z,24.32
2023-05-12T11:33:35.751Z,24.33
2023-05-12T11:34:35.804Z,24.34
2023-05-12T11:35:35.741Z,24.35
2023-05-12T11:36:35.745Z,24.36
2023-05-12T11:37:35.696Z,24.38
2023-05-12T11:38:35.711Z,24.38
2023-05-12T11:39:35.722Z,24.39
2023-05-12T11:40:35.690Z,24.40
2023-05-12T11:41:35.709Z,24.41
2023-05-12T11:42:35.714Z,24.41
2023-05-12T11:43:35.705Z,24.42
2023-05-12T11:44:35.657Z,24.41
2023-05-12T11:45:35.710Z,24.42
2023-05-12T11:46:35.664Z,24.40
2023-05-12T11:47:35.705Z,24.40
2023-05-12T11:48:35.648Z,24.39
2023-05-12T11:49:35.661Z,24.38
2023-05-12T11:50:35.618Z,24.37
2023-05-12T11:51:35.646Z,24.36
2023-05-12T11:52:35.622Z,24.35
2023-05-12T11:53:35.608Z,24.34
2023-05-12T11:54:35.804Z,24.33
2023-05-12T11:55:35.603Z,24.33
2023-05-12T11:56:35.612Z,24.32
2023-05-12T11:57:35.598Z,24.31
2023-05-12T11:58:35.754Z,24.30
2023-05-12T11:59:35.561Z,24.29
2023-05-12T12:00:35.602Z,24.28
2023-05-12T12:01:35.572Z,24.28
2023-05-12T12:02:35.664Z,24.27
2023-05-12T12:03:35.686Z,24.26
2023-05-12T12:04:35.591Z,24.25
2023-05-12T12:05:35.525Z,24.24
2023-05-12T12:06:35.553Z,24.23
2023-05-12T12:07:35.519Z,24.23
2023-05-12T12:08:35.528Z,24.22
2023-05-12T12:09:35.489Z,24.21
2023-05-12T12:10:35.524Z,24.20
2023-05-12T12:11:35.470Z,24.19
2023-05-12T12:12:35.531Z,24.19
2023-05-12T12:13:35.565Z,24.18
2023-05-12T12:14:35.595Z,24.17
2023-05-12T12:15:35.627Z,24.16
2023-05-12T12:16:35.703Z,24.16
2023-05-12T12:17:35.752Z,24.16
2023-05-12T12:18:35.806Z,24.15
2023-05-12T12:19:35.842Z,24.14
2023-05-12T12:20:35.872Z,24.13
2023-05-12T12:21:35.980Z,24.12
2023-05-12T12:22:35.991Z,24.11
2023-05-12T12:23:47.652Z,24.12
2023-05-12T12:24:37.316Z,24.10
2023-05-12T12:25:36.020Z,24.10
2023-05-12T12:26:37.175Z,24.09
2023-05-12T12:27:36.004Z,24.09
2023-05-12T12:28:35.993Z,24.08
2023-05-12T12:29:36.314Z,24.09
2023-05-12T12:30:35.984Z,24.08
2023-05-12T12:31:43.045Z,24.06
2023-05-12T12:32:35.968Z,24.05
2023-05-12T12:33:35.983Z,24.06
2023-05-12T12:34:35.945Z,24.06
2023-05-12T12:35:35.951Z,24.05
2023-05-12T12:36:35.919Z,24.05
2023-05-12T12:37:35.925Z,24.04
2023-05-12T12:38:35.934Z,24.04
2023-05-12T12:39:35.910Z,24.04
2023-05-12T12:40:42.943Z,24.03
2023-05-12T12:41:35.893Z,24.02
2023-05-12T12:42:35.885Z,24.02
2023-05-12T12:43:35.879Z,24.01
2023-05-12T12:44:35.882Z,24.00
2023-05-12T12:45:35.851Z,24.00
2023-05-12T12:46:35.899Z,24.00
2023-05-12T12:47:35.925Z,23.99
2023-05-12T12:48:35.841Z,23.99
2023-05-12T12:49:35.842Z,23.98
2023-05-12T12:50:35.844Z,23.98
2023-05-12T12:51:45.096Z,23.97
2023-05-12T12:52:36.876Z,23.96
2023-05-12T12:53:35.807Z,23.96
2023-05-12T12:54:43.376Z,23.95
2023-05-12T12:55:35.805Z,23.94